Upstream stations:
Downstream station:
SHEF ID: WETO2 North Canadian River near Wetumk
STATION TYPE:
Regulating: Stage = 14.00, Flow = 9630
PRECIP STAGE RIV-FLOW BAT-LOAD
in ft cfs volt
Ccp-Rev Ccp-Rev Ccp-Rev Ccp-Rev
(US/Central)
03/29 00:00 0.00 6.21 388 12.78
03/29 01:00 0.00 6.19 380 12.77
03/29 02:00 0.00 6.16 367 12.77
03/29 03:00 0.00 6.15 363 12.76
03/29 04:00 0.00 6.17 371 12.76
03/29 05:00 0.00 6.16 367 12.75
03/29 06:00 0.00 6.17 371 12.75
03/29 07:00 0.00 6.15 363 12.74
03/29 08:00 0.00 6.15 363 12.73
03/29 09:00 0.00 6.15 363 12.75
03/29 10:00 0.00 6.14 359 12.76
03/29 11:00 0.00 6.13 354 12.75
03/29 12:00 0.00 6.11 346 12.80
03/29 13:00 0.00 6.09 338 12.82
03/29 14:00 0.00 6.07 330 12.86
03/29 15:00 0.00 6.08 334 12.89
03/29 16:00 0.00 6.05 322 12.89
03/29 17:00 0.00 6.10 342 12.88
03/29 18:00 0.00 6.08 334 12.86
03/29 19:00 0.00 6.10 342 12.84
03/29 20:00 0.00 6.10 342 12.82
03/29 21:00 0.00 6.10 342 12.80
03/29 22:00 0.00 6.09 338 12.80
03/29 23:00 0.00 6.09 338 12.78